createdAt,value
2022-11-28T00:02:11.992Z,17.53
2022-11-28T00:04:57.400Z,20.97
2022-11-28T00:07:43.012Z,18.17
2022-11-28T00:10:28.100Z,15.60
2022-11-28T00:13:14.315Z,15.53
2022-11-28T00:16:01.443Z,17.63
2022-11-28T00:18:47.179Z,16.10
2022-11-28T00:21:32.969Z,16.27
2022-11-28T00:24:18.040Z,15.73
2022-11-28T00:27:03.457Z,15.73
2022-11-28T00:29:48.510Z,18.10
2022-11-28T00:32:35.933Z,17.30
2022-11-28T00:35:20.915Z,16.10
2022-11-28T00:38:05.820Z,15.80
2022-11-28T00:41:00.623Z,17.50
2022-11-28T00:43:47.450Z,16.93
2022-11-28T00:46:32.299Z,17.10
2022-11-28T00:49:17.327Z,16.50
2022-11-28T00:52:02.139Z,16.33
2022-11-28T00:54:47.106Z,16.03
2022-11-28T00:57:32.087Z,16.37
2022-11-28T01:00:17.500Z,16.50
2022-11-28T01:03:03.509Z,16.13
2022-11-28T01:05:49.095Z,14.67
2022-11-28T01:08:35.063Z,17.47
2022-11-28T01:11:21.590Z,15.73
2022-11-28T01:14:07.877Z,17.83
2022-11-28T01:16:53.049Z,15.53
2022-11-28T01:19:38.158Z,20.13
2022-11-28T01:22:23.568Z,16.27
2022-11-28T01:25:08.600Z,18.77
2022-11-28T01:27:53.459Z,15.70
2022-11-28T01:30:38.539Z,15.47
2022-11-28T01:33:23.768Z,16.87
2022-11-28T01:36:10.860Z,16.07
2022-11-28T01:38:56.033Z,16.47
2022-11-28T01:41:41.551Z,16.33
2022-11-28T01:44:26.716Z,15.83
2022-11-28T01:47:12.319Z,16.43
2022-11-28T01:49:57.707Z,16.93
2022-11-28T01:52:46.316Z,17.73
2022-11-28T01:55:35.127Z,18.47
2022-11-28T01:58:20.237Z,17.00
2022-11-28T02:01:06.941Z,17.17
2022-11-28T02:03:54.141Z,17.07
2022-11-28T02:06:41.174Z,18.37
2022-11-28T02:09:26.343Z,17.27
2022-11-28T02:12:52.679Z,19.00
2022-11-28T02:15:56.331Z,19.87
2022-11-28T02:18:50.925Z,17.77
2022-11-28T02:21:42.364Z,18.63
2022-11-28T02:24:54.750Z,20.83
2022-11-28T02:28:04.675Z,17.13
2022-11-28T02:31:27.010Z,18.13
2022-11-28T02:34:28.139Z,19.63
2022-11-28T02:37:49.289Z,21.10
2022-11-28T02:40:52.366Z,19.47
2022-11-28T02:43:42.501Z,18.80
2022-11-28T02:46:58.096Z,19.03
2022-11-28T02:49:58.384Z,18.70
2022-11-28T02:52:51.391Z,17.80
2022-11-28T02:55:41.224Z,18.03
2022-11-28T02:58:26.696Z,20.00
2022-11-28T03:01:31.340Z,19.00
2022-11-28T03:04:44.370Z,18.93
2022-11-28T03:08:23.667Z,20.33
2022-11-28T03:11:20.410Z,21.30
2022-11-28T03:14:27.207Z,20.17
2022-11-28T03:17:29.016Z,18.70
2022-11-28T03:20:53.822Z,21.47
2022-11-28T03:23:46.286Z,22.17
2022-11-28T03:26:56.872Z,22.77
2022-11-28T03:29:49.496Z,22.43
2022-11-28T03:32:37.752Z,22.13
2022-11-28T03:35:28.317Z,23.53
2022-11-28T03:38:22.059Z,23.93
2022-11-28T03:41:13.396Z,24.87
2022-11-28T03:44:02.181Z,27.17
2022-11-28T03:46:49.272Z,24.17
2022-11-28T03:49:39.309Z,24.67
2022-11-28T03:52:29.862Z,25.40
2022-11-28T03:55:23.582Z,24.47
2022-11-28T03:58:48.621Z,23.73
2022-11-28T04:01:47.860Z,25.67
2022-11-28T04:04:40.651Z,23.77
2022-11-28T04:07:38.615Z,27.63
2022-11-28T04:10:33.754Z,25.53
2022-11-28T04:13:23.927Z,25.63
2022-11-28T04:16:27.622Z,23.87
2022-11-28T04:19:19.563Z,23.53
2022-11-28T04:22:18.092Z,26.53
2022-11-28T04:25:12.412Z,22.90
2022-11-28T04:28:03.003Z,23.83
2022-11-28T04:30:50.114Z,24.30
2022-11-28T04:33:40.041Z,24.70
2022-11-28T04:36:26.729Z,23.53
2022-11-28T04:39:17.062Z,23.33
2022-11-28T04:42:39.832Z,23.43
2022-11-28T04:45:33.882Z,23.63
2022-11-28T04:48:19.764Z,23.50
2022-11-28T04:51:04.720Z,21.73
2022-11-28T04:54:00.945Z,22.83
2022-11-28T04:56:53.146Z,25.20
2022-11-28T04:59:39.532Z,21.90
2022-11-28T05:02:26.267Z,23.27
2022-11-28T05:05:16.382Z,21.27
2022-11-28T05:08:02.611Z,22.73
2022-11-28T05:10:48.237Z,22.47
2022-11-28T05:13:33.679Z,22.20
2022-11-28T05:16:18.733Z,22.63
2022-11-28T05:19:03.937Z,21.03
2022-11-28T05:21:48.914Z,21.87
2022-11-28T05:24:34.180Z,22.50
2022-11-28T05:27:19.138Z,21.97
2022-11-28T05:30:05.172Z,21.40
2022-11-28T05:32:50.605Z,21.60
2022-11-28T05:35:39.649Z,22.77
2022-11-28T05:38:24.444Z,22.73
2022-11-28T05:41:10.505Z,23.70
2022-11-28T05:43:56.612Z,22.93
2022-11-28T05:46:41.688Z,21.97
2022-11-28T05:49:26.719Z,22.57
2022-11-28T05:52:11.622Z,21.67
2022-11-28T05:54:56.493Z,23.03
2022-11-28T05:57:41.415Z,23.50
2022-11-28T06:00:26.753Z,21.53
2022-11-28T06:03:11.896Z,21.73
2022-11-28T06:05:57.319Z,21.23
2022-11-28T06:08:43.569Z,21.97
2022-11-28T06:11:31.010Z,23.30
2022-11-28T06:14:16.233Z,22.90
2022-11-28T06:17:01.235Z,22.43
2022-11-28T06:19:46.747Z,22.37
2022-11-28T06:22:31.672Z,21.17
2022-11-28T06:25:17.334Z,23.60
2022-11-28T06:28:02.449Z,24.33
2022-11-28T06:30:48.000Z,23.47
2022-11-28T06:33:33.270Z,21.37
2022-11-28T06:36:19.204Z,23.30
2022-11-28T06:39:04.664Z,25.53
2022-11-28T06:41:49.611Z,23.57
2022-11-28T06:44:34.737Z,23.20
2022-11-28T06:47:19.778Z,22.57
2022-11-28T06:50:05.230Z,23.00
2022-11-28T06:52:50.299Z,23.40
2022-11-28T06:55:35.770Z,23.40
2022-11-28T06:58:20.775Z,22.50
2022-11-28T07:01:17.609Z,25.03
2022-11-28T07:04:02.923Z,22.63
2022-11-28T07:06:47.917Z,22.03
2022-11-28T07:09:32.851Z,24.37
2022-11-28T07:12:17.955Z,29.37
2022-11-28T07:15:04.317Z,23.67
2022-11-28T07:17:50.088Z,23.60
2022-11-28T07:20:35.460Z,24.57
2022-11-28T07:23:20.244Z,23.57
2022-11-28T07:26:05.671Z,23.37
2022-11-28T07:28:51.861Z,22.57
2022-11-28T07:31:37.387Z,25.63
2022-11-28T07:34:24.552Z,25.37
2022-11-28T07:37:11.345Z,24.63
2022-11-28T07:39:56.692Z,23.90
2022-11-28T07:42:41.948Z,23.97
2022-11-28T07:45:41.917Z,25.43
2022-11-28T07:48:33.262Z,27.00
2022-11-28T07:51:28.533Z,26.93
2022-11-28T07:54:14.057Z,24.93
2022-11-28T07:57:14.634Z,24.87
2022-11-28T07:59:59.925Z,24.43
2022-11-28T08:02:45.403Z,30.83
2022-11-28T08:05:30.331Z,26.80
2022-11-28T08:08:19.622Z,26.77
2022-11-28T08:11:07.545Z,25.63
2022-11-28T08:13:55.048Z,27.13
2022-11-28T08:16:42.993Z,24.50
2022-11-28T08:19:33.831Z,29.67
2022-11-28T08:22:20.590Z,26.27
2022-11-28T08:25:05.808Z,25.20
2022-11-28T08:27:51.264Z,25.17
2022-11-28T08:30:36.085Z,25.57
2022-11-28T08:33:22.620Z,26.70
2022-11-28T08:36:09.652Z,25.80
2022-11-28T08:39:09.787Z,24.30
2022-11-28T08:42:00.239Z,26.87
2022-11-28T08:44:45.682Z,27.20
2022-11-28T08:47:30.576Z,25.20
2022-11-28T08:50:15.796Z,25.97
2022-11-28T08:53:07.822Z,27.43
2022-11-28T08:55:53.283Z,32.07
2022-11-28T08:58:38.651Z,25.07
2022-11-28T09:01:25.981Z,27.77
2022-11-28T09:04:11.418Z,25.83
2022-11-28T09:06:56.816Z,24.43
2022-11-28T09:09:41.879Z,25.77
2022-11-28T09:12:26.745Z,25.83
2022-11-28T09:15:11.716Z,25.63
2022-11-28T09:17:56.746Z,26.30
2022-11-28T09:20:42.150Z,23.80
2022-11-28T09:23:27.109Z,27.57
2022-11-28T09:26:20.229Z,24.87
2022-11-28T09:29:05.572Z,26.67
2022-11-28T09:31:50.418Z,25.63
2022-11-28T09:34:35.300Z,26.50
2022-11-28T09:37:20.181Z,25.20
2022-11-28T09:40:13.193Z,25.40
2022-11-28T09:43:01.523Z,27.07
2022-11-28T09:45:53.065Z,26.53
2022-11-28T09:48:44.867Z,25.30
2022-11-28T09:51:42.173Z,25.90
2022-11-28T09:54:54.030Z,26.87
2022-11-28T09:57:44.008Z,28.07
2022-11-28T10:00:47.239Z,29.23
2022-11-28T10:04:01.024Z,24.73
2022-11-28T10:06:57.344Z,26.17
2022-11-28T10:10:00.251Z,27.10
2022-11-28T10:12:48.367Z,25.03
2022-11-28T10:15:47.451Z,25.73
2022-11-28T10:18:38.464Z,26.83
2022-11-28T10:21:41.542Z,27.00
2022-11-28T10:24:38.322Z,25.20
2022-11-28T10:27:32.878Z,25.07
2022-11-28T10:30:27.520Z,24.30
2022-11-28T10:33:24.267Z,25.30
2022-11-28T10:36:20.167Z,27.10
2022-11-28T10:39:13.136Z,24.23
2022-11-28T10:42:12.619Z,28.00
2022-11-28T10:45:27.003Z,26.93
2022-11-28T10:48:39.710Z,26.20
2022-11-28T10:51:32.454Z,26.13
2022-11-28T10:54:36.605Z,30.00
2022-11-28T10:57:53.413Z,25.37
2022-11-28T11:00:39.730Z,27.10
2022-11-28T11:03:32.170Z,27.00
2022-11-28T11:06:17.693Z,26.73
2022-11-28T11:09:03.225Z,25.07
2022-11-28T11:11:58.331Z,27.23
2022-11-28T11:14:43.864Z,25.47
2022-11-28T11:17:36.592Z,26.23
2022-11-28T11:20:38.183Z,27.00
2022-11-28T11:23:23.567Z,27.77
2022-11-28T11:26:25.050Z,28.60
2022-11-28T11:29:40.728Z,26.43
2022-11-28T11:32:28.722Z,30.20
2022-11-28T11:35:24.272Z,28.23
2022-11-28T11:38:21.734Z,30.27
2022-11-28T11:41:20.802Z,29.57
2022-11-28T11:44:33.888Z,28.23
2022-11-28T11:47:19.461Z,27.80
2022-11-28T11:50:05.730Z,29.23
2022-11-28T11:53:10.868Z,27.27
2022-11-28T11:56:02.160Z,42.67
2022-11-28T11:58:51.951Z,28.53
2022-11-28T12:01:38.803Z,27.20
2022-11-28T12:04:48.923Z,28.97
2022-11-28T12:07:48.339Z,29.17
2022-11-28T12:10:39.801Z,27.17
2022-11-28T12:13:25.043Z,27.03
2022-11-28T12:16:31.825Z,27.67
2022-11-28T12:19:35.910Z,28.03
2022-11-28T12:22:39.406Z,27.07
2022-11-28T12:25:51.323Z,29.10
2022-11-28T12:28:47.458Z,28.50
2022-11-28T12:31:44.602Z,27.83
2022-11-28T12:35:14.507Z,28.87
2022-11-28T12:38:18.083Z,28.97
2022-11-28T12:41:32.817Z,27.97
2022-11-28T12:44:27.536Z,27.60
2022-11-28T12:47:31.051Z,31.67
2022-11-28T12:50:32.769Z,29.40
2022-11-28T12:53:30.099Z,29.33
2022-11-28T12:57:03.948Z,28.70
2022-11-28T13:00:06.991Z,27.40
2022-11-28T13:03:25.622Z,27.97
2022-11-28T13:06:23.874Z,30.93
2022-11-28T13:09:32.833Z,29.47
2022-11-28T13:12:39.547Z,28.33
2022-11-28T13:15:54.336Z,27.90
2022-11-28T13:18:43.427Z,28.27
2022-11-28T13:21:50.655Z,28.30
2022-11-28T13:25:00.335Z,29.53
2022-11-28T13:27:53.505Z,30.67
2022-11-28T13:30:52.607Z,28.63
2022-11-28T13:33:50.510Z,28.90
2022-11-28T13:40:38.185Z,31.80
2022-11-28T13:43:54.644Z,33.37
2022-11-28T13:46:39.741Z,32.33
2022-11-28T13:49:27.279Z,35.70
2022-11-28T13:52:18.416Z,42.27
2022-11-28T13:55:04.000Z,37.63
2022-11-28T13:57:49.305Z,34.97
2022-11-28T14:00:34.691Z,33.10
2022-11-28T14:03:20.716Z,35.30
2022-11-28T14:06:07.251Z,35.77
2022-11-28T14:09:26.574Z,34.57
2022-11-28T14:12:27.454Z,32.30
2022-11-28T14:15:31.618Z,33.87
2022-11-28T14:22:14.561Z,31.53
2022-11-28T14:25:08.404Z,33.57
2022-11-28T14:27:57.248Z,33.80
2022-11-28T14:30:45.386Z,31.93
2022-11-28T14:33:37.898Z,30.50
2022-11-28T14:36:31.473Z,49.30
2022-11-28T14:39:17.040Z,38.47
2022-11-28T14:42:02.444Z,36.40
2022-11-28T14:44:59.097Z,33.10
2022-11-28T14:48:07.463Z,33.67
2022-11-28T14:50:59.330Z,32.33
2022-11-28T14:53:49.001Z,35.13
2022-11-28T14:56:34.375Z,32.10
2022-11-28T14:59:23.953Z,33.13
2022-11-28T15:02:12.335Z,35.97
2022-11-28T15:05:13.218Z,35.07
2022-11-28T15:08:15.707Z,35.73
2022-11-28T15:11:25.638Z,36.20
2022-11-28T15:14:13.841Z,37.83
2022-11-28T15:17:05.560Z,39.07
2022-11-28T15:19:51.467Z,40.97
2022-11-28T15:22:42.113Z,39.47
2022-11-28T15:25:30.588Z,37.93
2022-11-28T15:28:18.647Z,39.13
2022-11-28T15:31:04.533Z,38.60
2022-11-28T15:33:51.115Z,37.63
2022-11-28T15:36:37.698Z,41.33
2022-11-28T15:39:28.192Z,36.93
2022-11-28T15:42:23.849Z,43.67
2022-11-28T15:45:18.131Z,48.03
2022-11-28T15:48:04.195Z,41.00
2022-11-28T15:50:50.733Z,47.83
2022-11-28T15:53:41.348Z,44.50
2022-11-28T15:56:26.954Z,45.00
2022-11-28T15:59:11.870Z,41.63
2022-11-28T16:02:05.492Z,46.57
2022-11-28T16:05:00.605Z,48.23
2022-11-28T16:07:45.885Z,44.67
2022-11-28T16:10:37.848Z,51.37
2022-11-28T16:13:23.568Z,44.67
2022-11-28T16:16:12.516Z,43.37
2022-11-28T16:19:00.258Z,45.57
2022-11-28T16:21:56.533Z,49.77
2022-11-28T16:25:12.441Z,46.60
2022-11-28T16:27:57.504Z,47.27
2022-11-28T16:30:43.593Z,46.00
2022-11-28T16:33:35.694Z,56.93
2022-11-28T16:36:36.372Z,56.77
2022-11-28T16:39:21.578Z,51.70
2022-11-28T16:42:13.489Z,48.10
2022-11-28T16:45:10.764Z,48.40
2022-11-28T16:48:22.412Z,52.07
2022-11-28T16:51:10.761Z,49.13
2022-11-28T16:53:57.107Z,50.90
2022-11-28T16:56:43.554Z,55.10
2022-11-28T16:59:29.098Z,51.70
2022-11-28T17:02:20.522Z,49.00
2022-11-28T17:05:06.026Z,49.43
2022-11-28T17:07:51.343Z,50.33
2022-11-28T17:10:36.586Z,51.90
2022-11-28T17:13:21.500Z,50.63
2022-11-28T17:16:14.735Z,50.47
2022-11-28T17:19:00.073Z,51.07
2022-11-28T17:21:48.758Z,56.57
2022-11-28T17:24:35.754Z,53.47
2022-11-28T17:27:21.230Z,55.17
2022-11-28T17:30:06.919Z,54.77
2022-11-28T17:32:52.229Z,53.53
2022-11-28T17:35:39.964Z,52.50
2022-11-28T17:38:25.373Z,55.63
2022-11-28T17:41:14.530Z,60.97
2022-11-28T17:43:59.691Z,52.40
2022-11-28T17:46:44.709Z,49.47
2022-11-28T17:49:30.223Z,51.50
2022-11-28T17:52:15.826Z,55.47
2022-11-28T17:55:06.371Z,58.07
2022-11-28T17:57:52.396Z,53.83
2022-11-28T18:00:37.713Z,55.73
2022-11-28T18:03:23.207Z,55.50
2022-11-28T18:06:19.866Z,52.93
2022-11-28T18:09:11.661Z,55.43
2022-11-28T18:11:57.754Z,53.37
2022-11-28T18:14:43.091Z,54.53
2022-11-28T18:17:28.467Z,56.87
2022-11-28T18:20:14.124Z,53.13
2022-11-28T18:23:00.434Z,50.03
2022-11-28T18:25:46.058Z,54.27
2022-11-28T18:28:31.086Z,52.27
2022-11-28T18:31:19.060Z,50.07
2022-11-28T18:34:06.812Z,53.60
2022-11-28T18:36:52.155Z,52.60
2022-11-28T18:39:37.141Z,53.10
2022-11-28T18:42:22.337Z,53.30
2022-11-28T18:45:09.429Z,48.93
2022-11-28T18:47:59.925Z,49.63
2022-11-28T18:50:45.827Z,51.10
2022-11-28T18:53:31.944Z,54.43
2022-11-28T18:56:17.315Z,53.03
2022-11-28T18:59:03.062Z,54.80
2022-11-28T19:01:48.484Z,55.60
2022-11-28T19:04:33.480Z,53.47
2022-11-28T19:07:18.568Z,49.30
2022-11-28T19:10:04.245Z,170.57
2022-11-28T19:12:49.499Z,53.17
2022-11-28T19:15:39.000Z,50.47
2022-11-28T19:18:23.819Z,51.57
2022-11-28T19:21:11.499Z,51.80
2022-11-28T19:23:57.445Z,55.53
2022-11-28T19:26:42.657Z,52.93
2022-11-28T19:29:27.814Z,50.93
2022-11-28T19:32:12.694Z,53.70
2022-11-28T19:34:57.566Z,50.23
2022-11-28T19:37:42.513Z,52.17
2022-11-28T19:40:27.536Z,51.07
2022-11-28T19:43:13.108Z,51.77
2022-11-28T19:45:58.552Z,50.27
2022-11-28T19:48:43.910Z,53.67
2022-11-28T19:51:29.010Z,51.13
2022-11-28T19:54:15.130Z,55.70
2022-11-28T19:57:00.274Z,51.53
2022-11-28T19:59:45.640Z,56.87
2022-11-28T20:02:31.511Z,58.63
2022-11-28T20:05:16.723Z,61.63
2022-11-28T20:08:02.208Z,58.00
2022-11-28T20:10:47.566Z,56.73
2022-11-28T20:13:32.907Z,58.17
2022-11-28T20:16:18.401Z,66.73
2022-11-28T20:19:05.134Z,67.43
2022-11-28T20:21:50.404Z,68.27
2022-11-28T20:24:35.624Z,70.03
2022-11-28T20:27:20.766Z,62.93
2022-11-28T20:30:06.545Z,66.87
2022-11-28T20:32:53.421Z,72.47
2022-11-28T20:35:38.696Z,62.07
2022-11-28T20:38:23.574Z,62.83
2022-11-28T20:41:11.524Z,63.40
2022-11-28T20:43:59.318Z,67.37
2022-11-28T20:46:45.064Z,70.57
2022-11-28T20:49:30.139Z,68.83
2022-11-28T20:52:15.311Z,68.40
2022-11-28T20:55:00.475Z,73.57
2022-11-28T20:57:45.461Z,79.50
2022-11-28T21:00:30.513Z,66.40
2022-11-28T21:03:15.620Z,76.57
2022-11-28T21:06:01.472Z,77.83
2022-11-28T21:08:47.420Z,73.27
2022-11-28T21:11:55.676Z,80.40
2022-11-28T21:14:37.824Z,87.60
2022-11-28T21:17:23.155Z,82.40
2022-11-28T21:20:08.896Z,95.33
2022-11-28T21:22:55.202Z,83.57
2022-11-28T21:25:41.957Z,89.63
2022-11-28T21:28:27.004Z,81.33
2022-11-28T21:31:16.164Z,80.10
2022-11-28T21:34:01.431Z,81.37
2022-11-28T21:36:46.735Z,103.73
2022-11-28T21:39:31.841Z,93.57
2022-11-28T21:42:20.493Z,104.27
2022-11-28T21:45:06.557Z,127.00
2022-11-28T21:47:52.039Z,117.73
2022-11-28T21:50:37.621Z,116.80
2022-11-28T21:53:22.494Z,91.53
2022-11-28T21:56:07.475Z,81.30
2022-11-28T21:58:52.946Z,92.10
2022-11-28T22:01:38.186Z,108.80
2022-11-28T22:04:23.226Z,91.77
2022-11-28T22:07:09.099Z,139.57
2022-11-28T22:12:57.740Z,149.53
2022-11-28T22:15:43.017Z,116.03
2022-11-28T22:18:29.387Z,143.80
2022-11-28T22:21:50.071Z,176.47
2022-11-28T22:24:19.741Z,180.37
2022-11-28T22:27:04.641Z,200.10
2022-11-28T22:29:49.574Z,183.07
2022-11-28T22:32:34.849Z,189.20
2022-11-28T22:35:19.588Z,175.00
2022-11-28T22:38:04.609Z,163.70
2022-11-28T22:40:49.628Z,158.73
2022-11-28T22:43:34.815Z,143.07
2022-11-28T22:46:20.101Z,156.77
2022-11-28T22:49:05.302Z,163.73
2022-11-28T22:51:50.106Z,126.03
2022-11-28T22:54:36.615Z,178.77
2022-11-28T22:57:21.554Z,260.97
2022-11-28T23:00:08.814Z,213.00
2022-11-28T23:02:53.940Z,304.77
2022-11-28T23:05:39.511Z,286.90
2022-11-28T23:08:24.853Z,252.70
2022-11-28T23:11:17.116Z,166.37
2022-11-28T23:14:02.963Z,179.57
2022-11-28T23:16:48.352Z,214.33
2022-11-28T23:19:33.823Z,206.53
2022-11-28T23:22:18.878Z,212.33
2022-11-28T23:25:03.976Z,274.73
2022-11-28T23:27:49.140Z,266.60
2022-11-28T23:30:34.789Z,130.63
2022-11-28T23:33:20.148Z,143.97
2022-11-28T23:36:20.154Z,189.33
2022-11-28T23:39:09.491Z,215.43
2022-11-28T23:41:54.571Z,179.73
2022-11-28T23:44:39.966Z,290.10
2022-11-28T23:47:25.176Z,202.00
2022-11-28T23:50:10.300Z,293.37
2022-11-28T23:52:55.353Z,329.10
2022-11-28T23:55:40.494Z,205.93
2022-11-28T23:58:25.795Z,156.07
